TimeCDT,TemperatureF,Dew PointF,Humidity,Sea Level PressureIn,VisibilityMPH,Wind Direction,Wind SpeedMPH,Gust SpeedMPH,PrecipitationIn,Events,Conditions,WindDirDegrees,DateUTC
12:54 AM,52.0,36.0,54,30.16,10.0,SSE,11.5,-,N/A,,Overcast,160,2013-04-26 05:54:00
1:54 AM,53.6,37.4,54,30.15,10.0,South,12.7,-,N/A,,Mostly Cloudy,170,2013-04-26 06:54:00
2:54 AM,53.1,37.9,57,30.14,10.0,South,11.5,-,N/A,,Overcast,170,2013-04-26 07:54:00
3:54 AM,53.1,39.0,59,30.13,10.0,South,10.4,-,N/A,,Overcast,170,2013-04-26 08:54:00
4:54 AM,51.1,39.0,63,30.12,10.0,SSE,10.4,-,N/A,,Mostly Cloudy,160,2013-04-26 09:54:00
5:54 AM,50.0,37.9,63,30.10,10.0,SSE,11.5,-,N/A,,Overcast,160,2013-04-26 10:54:00
6:54 AM,51.1,37.9,61,30.11,10.0,South,8.1,-,N/A,,Mostly Cloudy,190,2013-04-26 11:54:00
7:54 AM,54.0,39.0,57,30.13,10.0,SSW,16.1,-,N/A,,Mostly Cloudy,200,2013-04-26 12:54:00
8:54 AM,60.1,41.0,49,30.13,10.0,SSW,21.9,29.9,N/A,,Overcast,200,2013-04-26 13:54:00
9:54 AM,62.1,42.1,48,30.14,10.0,SSW,23.0,33.4,N/A,,Overcast,200,2013-04-26 14:54:00
10:54 AM,63.0,44.1,50,30.14,10.0,SSW,21.9,32.2,N/A,,Overcast,210,2013-04-26 15:54:00
11:54 AM,64.0,45.0,50,30.16,10.0,SSW,23.0,33.4,N/A,,Overcast,200,2013-04-26 16:54:00
12:54 PM,64.0,44.1,48,30.15,10.0,SSW,21.9,31.1,N/A,,Overcast,200,2013-04-26 17:54:00
1:54 PM,64.0,46.9,54,30.13,10.0,South,20.7,25.3,N/A,,Mostly Cloudy,190,2013-04-26 18:54:00
2:54 PM,66.9,48.0,51,30.13,10.0,SSW,17.3,26.5,N/A,,Mostly Cloudy,210,2013-04-26 19:54:00
3:54 PM,64.9,46.9,52,30.14,10.0,SW,17.3,-,N/A,,Overcast,220,2013-04-26 20:54:00
4:54 PM,64.0,48.0,56,30.15,10.0,SSW,13.8,23.0,N/A,,Overcast,200,2013-04-26 21:54:00
5:54 PM,63.0,46.9,56,30.16,10.0,SSW,16.1,-,N/A,,Mostly Cloudy,200,2013-04-26 22:54:00
6:54 PM,61.0,48.0,62,30.17,10.0,South,13.8,-,N/A,,Partly Cloudy,190,2013-04-26 23:54:00
7:54 PM,57.9,46.9,67,30.17,10.0,South,9.2,-,N/A,,Partly Cloudy,190,2013-04-27 00:54:00
8:54 PM,55.9,46.0,69,30.19,10.0,South,10.4,-,N/A,,Scattered Clouds,180,2013-04-27 01:54:00
9:54 PM,54.0,46.0,75,30.20,10.0,South,9.2,-,N/A,,Clear,170,2013-04-27 02:54:00
10:54 PM,51.1,45.0,80,30.21,10.0,South,8.1,-,N/A,,Clear,180,2013-04-27 03:54:00
11:54 PM,50.0,44.1,80,30.21,10.0,South,6.9,-,N/A,,Clear,190,2013-04-27 04:54:00